createdAt,value
2019-01-11T00:04:30.649Z,-0.47
2019-01-11T00:07:09.690Z,-0.53
2019-01-11T00:10:09.737Z,-0.56
2019-01-11T00:13:09.798Z,-0.49
2019-01-11T00:15:48.866Z,-0.49
2019-01-11T00:18:49.059Z,-0.45
2019-01-11T00:21:29.589Z,-0.49
2019-01-11T00:24:29.376Z,-0.46
2019-01-11T00:27:29.392Z,-0.41
2019-01-11T00:30:29.637Z,-0.43
2019-01-11T00:33:28.950Z,-0.44
2019-01-11T00:36:07.953Z,-0.43
2019-01-11T00:38:35.931Z,-0.41
2019-01-11T00:41:35.474Z,-0.46
2019-01-11T00:44:26.178Z,-0.46
2019-01-11T00:47:25.826Z,-0.45
2019-01-11T00:50:25.904Z,-0.54
2019-01-11T00:53:26.181Z,-0.51
2019-01-11T00:56:13.405Z,-0.46
2019-01-11T00:59:02.451Z,-0.43
2019-01-11T01:02:02.549Z,-0.43
2019-01-11T01:05:02.856Z,-0.44
2019-01-11T01:08:03.147Z,-0.48
2019-01-11T01:13:32.679Z,-0.46
2019-01-11T01:16:00.636Z,-0.52
2019-01-11T01:19:00.097Z,-0.48
2019-01-11T01:21:29.146Z,-0.47
2019-01-11T01:24:28.456Z,-0.50
2019-01-11T01:26:57.001Z,-0.55
2019-01-11T01:29:47.380Z,-0.64
2019-01-11T01:32:47.142Z,-0.65
2019-01-11T01:38:27.275Z,-0.82
2019-01-11T01:41:27.083Z,-0.85
2019-01-11T01:44:27.199Z,-0.86
2019-01-11T01:47:27.467Z,-0.87
2019-01-11T01:50:27.657Z,-0.88
2019-01-11T01:53:27.802Z,-0.84
2019-01-11T01:55:55.707Z,-0.87
2019-01-11T01:58:42.807Z,-0.92
2019-01-11T02:01:10.525Z,-0.92
2019-01-11T02:04:10.347Z,-0.99
2019-01-11T02:07:10.571Z,-0.99
2019-01-11T02:10:10.574Z,-1.06
2019-01-11T02:13:10.902Z,-1.03
2019-01-11T02:18:40.487Z,-0.87
2019-01-11T02:24:09.356Z,-0.61
2019-01-11T02:27:09.642Z,-0.47
2019-01-11T02:32:52.824Z,-0.19
2019-01-11T02:35:38.804Z,-0.10
2019-01-11T02:38:06.527Z,-0.07
2019-01-11T02:43:35.207Z,0.06
2019-01-11T02:46:04.773Z,0.04
2019-01-11T02:48:44.707Z,0.13
2019-01-11T02:51:46.259Z,0.16
2019-01-11T02:57:34.992Z,0.08
2019-01-11T03:00:34.953Z,0.15
2019-01-11T03:03:34.285Z,0.17
2019-01-11T03:06:34.455Z,0.17
2019-01-11T03:09:34.622Z,0.23
2019-01-11T03:15:38.841Z,0.17
2019-01-11T03:18:38.938Z,0.25
2019-01-11T03:21:27.865Z,0.23
2019-01-11T03:24:27.473Z,0.14
2019-01-11T03:27:27.772Z,0.10
2019-01-11T03:30:16.695Z,0.02
2019-01-11T03:33:16.825Z,-0.05
2019-01-11T03:36:16.820Z,-0.06
2019-01-11T03:39:17.010Z,-0.09
2019-01-11T03:42:17.285Z,-0.10
2019-01-11T03:48:17.843Z,-0.22
2019-01-11T03:51:18.119Z,-0.16
2019-01-11T03:53:58.692Z,-0.14
2019-01-11T03:56:58.439Z,-0.10
2019-01-11T03:59:58.604Z,-0.12
2019-01-11T04:02:38.397Z,-0.16
2019-01-11T04:05:38.082Z,-0.18
2019-01-11T04:08:38.252Z,-0.22
2019-01-11T04:11:05.916Z,-0.21
2019-01-11T04:14:05.672Z,-0.20
2019-01-11T04:16:33.418Z,-0.24
2019-01-11T04:19:14.588Z,-0.29
2019-01-11T04:22:13.935Z,-0.29
2019-01-11T04:27:43.221Z,-0.37
2019-01-11T04:30:44.556Z,-0.31
2019-01-11T04:33:12.441Z,-0.41
2019-01-11T04:36:12.758Z,-0.37
2019-01-11T04:39:12.089Z,-0.29
2019-01-11T04:42:12.194Z,-0.41
2019-01-11T04:45:01.589Z,-0.42
2019-01-11T04:48:01.409Z,-0.46
2019-01-11T04:51:01.551Z,-0.48
2019-01-11T04:53:29.331Z,-0.49
2019-01-11T04:56:29.567Z,-0.52
2019-01-11T04:59:29.811Z,-0.58
2019-01-11T05:01:57.464Z,-0.60
2019-01-11T05:04:36.587Z,-0.69
2019-01-11T05:07:06.119Z,-0.68
2019-01-11T05:10:06.009Z,-0.69
2019-01-11T05:12:33.806Z,-0.72
2019-01-11T05:15:34.010Z,-0.75
2019-01-11T05:18:01.742Z,-0.77
2019-01-11T05:21:01.126Z,-0.81
2019-01-11T05:24:01.299Z,-0.85
2019-01-11T05:27:01.429Z,-0.87
2019-01-11T05:29:40.531Z,-1.02
2019-01-11T05:32:40.733Z,-0.99
2019-01-11T05:35:19.986Z,-1.08
2019-01-11T05:37:59.028Z,-1.07
2019-01-11T05:44:09.551Z,-1.09
2019-01-11T05:50:11.077Z,-1.13
2019-01-11T05:53:10.537Z,-1.11
2019-01-11T05:58:33.085Z,-1.25
2019-01-11T06:01:01.288Z,-1.29
2019-01-11T06:06:48.868Z,-1.31
2019-01-11T06:09:16.437Z,-1.31
2019-01-11T06:11:44.220Z,-1.34
2019-01-11T06:14:43.733Z,-1.34
2019-01-11T06:17:11.587Z,-1.38
2019-01-11T06:20:11.812Z,-1.41
2019-01-11T06:22:51.807Z,-1.42
2019-01-11T06:25:19.447Z,-1.50
2019-01-11T06:30:51.972Z,-1.56
2019-01-11T06:33:19.787Z,-1.78
2019-01-11T06:35:58.922Z,-1.82
2019-01-11T06:38:58.291Z,-1.89
2019-01-11T06:44:10.571Z,-2.08
2019-01-11T06:47:10.534Z,-2.14
2019-01-11T06:50:10.745Z,-2.17
2019-01-11T06:52:49.817Z,-2.20
2019-01-11T06:58:16.986Z,-2.46
2019-01-11T07:01:16.264Z,-2.42
2019-01-11T07:03:44.133Z,-2.42
2019-01-11T07:06:44.425Z,-2.40
2019-01-11T07:09:44.626Z,-2.44
2019-01-11T07:12:23.566Z,-2.31
2019-01-11T07:15:25.041Z,-2.04
2019-01-11T07:17:52.882Z,-1.82
2019-01-11T07:20:31.995Z,-1.40
2019-01-11T07:22:59.704Z,-1.17
2019-01-11T07:26:02.167Z,-0.72
2019-01-11T07:31:14.234Z,-0.16
2019-01-11T07:34:14.222Z,-0.02
2019-01-11T07:37:01.384Z,0.36
2019-01-11T07:42:30.406Z,0.78
2019-01-11T07:45:29.686Z,0.71
2019-01-11T07:48:29.861Z,0.91
2019-01-11T07:51:30.149Z,1.15
2019-01-11T07:57:31.496Z,1.63
2019-01-11T08:00:31.651Z,1.96
2019-01-11T08:02:59.379Z,2.14
2019-01-11T08:05:58.875Z,2.27
2019-01-11T08:08:59.157Z,2.61
2019-01-11T08:11:26.803Z,2.74
2019-01-11T08:14:28.281Z,2.65
2019-01-11T08:16:56.094Z,2.99
2019-01-11T08:19:56.317Z,3.15
2019-01-11T08:22:56.307Z,3.40
2019-01-11T08:25:35.310Z,3.75
2019-01-11T08:44:26.873Z,5.04
2019-01-11T08:47:27.089Z,5.00
2019-01-11T08:56:38.735Z,5.13
2019-01-11T08:59:27.738Z,5.15
2019-01-11T09:04:56.560Z,5.51
2019-01-11T09:08:04.901Z,5.15
2019-01-11T09:14:07.600Z,5.13
2019-01-11T09:17:07.803Z,5.39
2019-01-11T09:20:07.902Z,5.20
2019-01-11T09:23:07.990Z,4.65
2019-01-11T09:26:08.131Z,4.95
2019-01-11T09:29:08.445Z,4.80
2019-01-11T09:31:36.092Z,5.44
2019-01-11T09:34:35.629Z,5.31
2019-01-11T09:37:14.643Z,5.40
2019-01-11T09:40:14.759Z,5.41
2019-01-11T09:43:14.941Z,5.50
2019-01-11T09:46:14.188Z,5.60
2019-01-11T09:48:41.910Z,5.45
2019-01-11T09:51:41.765Z,5.37
2019-01-11T09:54:41.232Z,5.54
2019-01-11T10:00:51.646Z,5.59
2019-01-11T10:03:19.283Z,5.78
2019-01-11T10:05:59.084Z,5.97
2019-01-11T10:08:38.994Z,5.94
2019-01-11T10:11:06.533Z,5.81
2019-01-11T10:14:06.759Z,5.65
2019-01-11T10:16:34.603Z,5.93
2019-01-11T10:19:34.585Z,5.95
2019-01-11T10:22:34.025Z,5.90
2019-01-11T10:25:13.083Z,5.90
2019-01-11T10:28:13.354Z,6.14
2019-01-11T10:30:52.393Z,6.16
2019-01-11T10:33:51.785Z,6.54
2019-01-11T10:36:52.098Z,6.75
2019-01-11T10:39:52.287Z,6.77
2019-01-11T10:42:41.221Z,6.49
2019-01-11T10:48:46.386Z,6.97
2019-01-11T10:51:46.102Z,6.82
2019-01-11T11:03:58.285Z,6.79
2019-01-11T11:06:57.817Z,6.87
2019-01-11T11:09:57.171Z,6.83
2019-01-11T11:12:57.549Z,7.16
2019-01-11T11:15:55.088Z,7.28
2019-01-11T11:21:55.759Z,7.57
2019-01-11T11:31:03.992Z,7.94
2019-01-11T11:34:03.522Z,7.79
2019-01-11T11:37:02.865Z,7.82
2019-01-11T11:43:02.762Z,7.57
2019-01-11T11:55:04.460Z,8.94
2019-01-11T12:07:08.886Z,8.14
2019-01-11T12:09:47.950Z,7.69
2019-01-11T12:12:48.401Z,7.11
2019-01-11T12:15:37.283Z,6.78
2019-01-11T12:18:26.259Z,6.43
2019-01-11T12:21:15.227Z,5.88
2019-01-11T12:24:15.257Z,5.35
2019-01-11T12:27:15.449Z,5.16
2019-01-11T12:30:15.674Z,5.34
2019-01-11T12:35:53.334Z,5.68
2019-01-11T12:38:53.235Z,5.71
2019-01-11T12:44:54.096Z,5.86
2019-01-11T12:50:55.876Z,6.92
2019-01-11T12:56:56.104Z,7.45
2019-01-11T12:59:56.250Z,7.36
2019-01-11T13:02:56.473Z,7.75
2019-01-11T13:05:56.539Z,7.35
2019-01-11T13:08:56.644Z,7.72
2019-01-11T13:11:35.690Z,7.36
2019-01-11T13:14:36.060Z,7.57
2019-01-11T13:17:37.392Z,7.95
2019-01-11T13:20:07.059Z,8.06
2019-01-11T13:23:06.748Z,8.06
2019-01-11T13:25:53.920Z,7.62
2019-01-11T13:34:18.036Z,7.59
2019-01-11T13:42:50.139Z,5.79
2019-01-11T13:45:58.488Z,6.05
2019-01-11T13:48:26.355Z,6.90
2019-01-11T13:57:27.767Z,6.48
2019-01-11T14:03:35.667Z,6.40
2019-01-11T14:09:38.120Z,5.62
2019-01-11T14:12:18.642Z,5.85
2019-01-11T14:24:14.339Z,6.05
2019-01-11T14:30:16.777Z,5.35
2019-01-11T14:33:16.513Z,5.46
2019-01-11T14:36:16.083Z,5.48
2019-01-11T14:42:16.936Z,5.14
2019-01-11T14:48:06.448Z,5.07
2019-01-11T14:51:07.138Z,4.89
2019-01-11T14:53:46.156Z,4.61
2019-01-11T14:56:16.870Z,4.10
2019-01-11T14:59:18.788Z,3.93
2019-01-11T15:05:06.593Z,3.50
2019-01-11T15:14:14.189Z,3.05
2019-01-11T15:20:14.453Z,2.74
2019-01-11T15:23:14.978Z,2.63
2019-01-11T15:26:18.316Z,2.40
2019-01-11T15:35:15.909Z,1.76
2019-01-11T15:38:16.202Z,1.59
2019-01-11T15:41:15.548Z,1.32
2019-01-11T15:44:14.910Z,1.13
2019-01-11T15:46:54.921Z,0.83
2019-01-11T15:49:22.481Z,0.78
2019-01-11T15:52:22.550Z,0.69
2019-01-11T15:54:50.488Z,0.58
2019-01-11T16:00:40.376Z,0.30
2019-01-11T16:06:43.226Z,0.05
2019-01-11T16:10:09.155Z,-0.08
2019-01-11T16:13:15.784Z,-0.22
2019-01-11T16:16:22.233Z,-0.36
2019-01-11T16:19:31.214Z,-0.50
2019-01-11T16:21:58.949Z,-0.57
2019-01-11T16:27:28.091Z,-0.63
2019-01-11T16:33:29.625Z,-0.72
2019-01-11T16:39:00.050Z,-0.85
2019-01-11T16:42:08.342Z,-0.97
2019-01-11T16:45:08.249Z,-1.03
2019-01-11T16:48:07.701Z,-1.13
2019-01-11T16:56:51.199Z,-1.43
2019-01-11T17:00:01.947Z,-1.53
2019-01-11T17:05:18.428Z,-1.73
2019-01-11T17:08:17.816Z,-1.79
2019-01-11T17:17:26.812Z,-1.97
2019-01-11T17:19:54.555Z,-2.04
2019-01-11T17:25:56.578Z,-2.09
2019-01-11T17:28:56.946Z,-2.15
2019-01-11T17:34:58.599Z,-2.20
2019-01-11T17:37:58.757Z,-2.19
2019-01-11T17:40:58.948Z,-2.25
2019-01-11T17:46:42.014Z,-2.31
2019-01-11T17:49:42.242Z,-2.38
2019-01-11T17:52:42.395Z,-2.42
2019-01-11T17:55:42.618Z,-2.37
2019-01-11T17:58:42.652Z,-2.31
2019-01-11T18:01:32.553Z,-2.41
2019-01-11T18:04:21.410Z,-2.43
2019-01-11T18:07:29.858Z,-2.58
2019-01-11T18:13:08.040Z,-2.71
2019-01-11T18:15:48.612Z,-2.75
2019-01-11T18:21:16.937Z,-2.78
2019-01-11T18:26:57.095Z,-2.88
2019-01-11T18:30:05.404Z,-2.97
2019-01-11T18:35:35.269Z,-3.06
2019-01-11T18:41:04.475Z,-3.07
2019-01-11T18:46:31.694Z,-3.18
2019-01-11T18:49:25.221Z,-3.19
2019-01-11T18:52:12.484Z,-3.17
2019-01-11T18:55:01.466Z,-3.18
2019-01-11T18:57:29.043Z,-3.14
2019-01-11T19:00:37.476Z,-3.19
2019-01-11T19:03:26.334Z,-3.17
2019-01-11T19:06:34.749Z,-3.12
2019-01-11T19:09:04.189Z,-3.26
2019-01-11T19:11:31.862Z,-3.20
2019-01-11T19:13:59.444Z,-3.20
2019-01-11T19:16:27.194Z,-3.11
2019-01-11T19:18:54.771Z,-3.09
2019-01-11T19:21:22.490Z,-3.09
2019-01-11T19:23:50.295Z,-3.05
2019-01-11T19:26:18.094Z,-3.04
2019-01-11T19:29:17.831Z,-2.99
2019-01-11T19:31:45.595Z,-3.02
2019-01-11T19:34:13.276Z,-3.00
2019-01-11T19:36:41.001Z,-2.92
2019-01-11T19:39:08.743Z,-3.06
2019-01-11T19:42:08.335Z,-3.03
2019-01-11T19:44:36.048Z,-3.00
2019-01-11T19:47:03.792Z,-2.92
2019-01-11T19:52:32.901Z,-2.90
2019-01-11T19:55:00.535Z,-2.87
2019-01-11T20:01:05.935Z,-2.74
2019-01-11T20:03:45.055Z,-2.72
2019-01-11T20:06:12.763Z,-2.70
2019-01-11T20:09:12.147Z,-2.67
2019-01-11T20:12:11.704Z,-2.77
2019-01-11T20:14:39.421Z,-2.64
2019-01-11T20:23:10.118Z,-2.59
2019-01-11T20:26:09.968Z,-2.47
2019-01-11T20:28:58.902Z,-2.59
2019-01-11T20:34:38.441Z,-2.44
2019-01-11T20:37:28.212Z,-2.37
2019-01-11T20:40:07.238Z,-2.28
2019-01-11T20:42:47.300Z,-2.22
2019-01-11T20:45:48.030Z,-2.19
2019-01-11T20:51:50.824Z,-2.05
2019-01-11T20:57:20.033Z,-2.05
2019-01-11T21:03:06.625Z,-2.03
2019-01-11T21:08:46.262Z,-2.13
2019-01-11T21:11:46.511Z,-2.03
2019-01-11T21:14:46.537Z,-1.98
2019-01-11T21:23:48.914Z,-1.77
2019-01-11T21:26:38.033Z,-1.65
2019-01-11T21:29:05.903Z,-1.62
2019-01-11T21:32:05.959Z,-1.56
2019-01-11T21:37:31.171Z,-1.65
2019-01-11T21:40:31.482Z,-1.75
2019-01-11T21:43:30.895Z,-1.65
2019-01-11T21:46:30.340Z,-1.55
2019-01-11T21:48:58.366Z,-1.50
2019-01-11T21:58:04.570Z,-1.30
2019-01-11T22:01:00.249Z,-1.40
2019-01-11T22:03:49.259Z,-1.34
2019-01-11T22:06:30.012Z,-1.26
2019-01-11T22:09:30.027Z,-1.20
2019-01-11T22:12:30.229Z,-1.21
2019-01-11T22:18:29.103Z,-1.23
2019-01-11T22:24:18.549Z,-1.10
2019-01-11T22:30:18.684Z,-1.16
2019-01-11T22:33:18.860Z,-1.12
2019-01-11T22:36:18.308Z,-1.25
2019-01-11T22:39:17.973Z,-1.24
2019-01-11T22:41:45.790Z,-1.21
2019-01-11T22:44:45.155Z,-1.23
2019-01-11T22:47:45.409Z,-1.20
2019-01-11T22:53:13.719Z,-1.35
2019-01-11T22:55:52.831Z,-1.26
2019-01-11T22:58:20.651Z,-1.20
2019-01-11T23:01:22.883Z,-1.12
2019-01-11T23:04:24.409Z,-1.05
2019-01-11T23:06:59.151Z,-1.03
2019-01-11T23:10:01.595Z,-1.24
2019-01-11T23:16:14.600Z,-1.27
2019-01-11T23:19:14.720Z,-1.29
2019-01-11T23:22:15.027Z,-1.14
2019-01-11T23:25:16.520Z,-1.09
2019-01-11T23:28:15.892Z,-1.05
2019-01-11T23:31:16.457Z,-0.96
2019-01-11T23:36:44.719Z,-0.94
2019-01-11T23:42:24.169Z,-1.10
2019-01-11T23:45:23.944Z,-1.01
2019-01-11T23:48:02.924Z,-1.18
2019-01-11T23:51:02.642Z,-1.15
2019-01-11T23:54:02.827Z,-1.14
2019-01-11T23:56:49.863Z,-1.12
2019-01-11T23:59:28.898Z,-1.10
